sensor_id;sensor_type;location;lat;lon;timestamp;P1;P2;P0
73148;PMS7003;61346;48.930;2.266;2023-02-23T00:00:21;32.00;21.75;14.25
73148;PMS7003;61346;48.930;2.266;2023-02-23T00:02:52;23.50;21.50;13.25
73148;PMS7003;61346;48.930;2.266;2023-02-23T00:05:20;21.00;21.00;14.00
73148;PMS7003;61346;48.930;2.266;2023-02-23T00:07:53;21.50;19.75;12.25
73148;PMS7003;61346;48.930;2.266;2023-02-23T00:10:19;26.25;22.75;14.50
73148;PMS7003;61346;48.930;2.266;2023-02-23T00:12:49;25.25;20.75;12.00
73148;PMS7003;61346;48.930;2.266;2023-02-23T00:15:16;26.50;21.00;12.50
73148;PMS7003;61346;48.930;2.266;2023-02-23T00:17:44;32.25;24.25;14.50
73148;PMS7003;61346;48.930;2.266;2023-02-23T00:20:25;27.00;25.50;16.25
73148;PMS7003;61346;48.930;2.266;2023-02-23T00:22:54;22.00;22.00;14.00
73148;PMS7003;61346;48.930;2.266;2023-02-23T00:25:21;29.25;25.50;14.00
73148;PMS7003;61346;48.930;2.266;2023-02-23T00:27:48;26.50;24.50;15.75
73148;PMS7003;61346;48.930;2.266;2023-02-23T00:30:15;27.25;22.50;13.50
73148;PMS7003;61346;48.930;2.266;2023-02-23T00:33:02;26.00;23.50;13.00
73148;PMS7003;61346;48.930;2.266;2023-02-23T00:35:28;22.00;20.25;12.75
73148;PMS7003;61346;48.930;2.266;2023-02-23T00:37:53;29.25;23.00;15.50
73148;PMS7003;61346;48.930;2.266;2023-02-23T00:40:22;25.75;24.25;14.50
73148;PMS7003;61346;48.930;2.266;2023-02-23T00:42:48;28.25;22.50;14.00
73148;PMS7003;61346;48.930;2.266;2023-02-23T00:45:17;31.50;21.75;14.25
73148;PMS7003;61346;48.930;2.266;2023-02-23T00:47:50;24.75;21.25;14.50
73148;PMS7003;61346;48.930;2.266;2023-02-23T00:50:16;24.50;23.00;14.50
73148;PMS7003;61346;48.930;2.266;2023-02-23T00:52:43;28.50;21.25;13.00
73148;PMS7003;61346;48.930;2.266;2023-02-23T00:55:12;25.25;20.75;13.75
73148;PMS7003;61346;48.930;2.266;2023-02-23T00:57:39;23.00;20.75;13.00
73148;PMS7003;61346;48.930;2.266;2023-02-23T01:00:06;22.75;21.00;13.75
73148;PMS7003;61346;48.930;2.266;2023-02-23T01:02:58;23.50;22.25;14.00
73148;PMS7003;61346;48.930;2.266;2023-02-23T01:05:49;32.00;27.25;16.25
73148;PMS7003;61346;48.930;2.266;2023-02-23T01:08:28;28.00;25.00;14.25
73148;PMS7003;61346;48.930;2.266;2023-02-23T01:10:56;27.25;22.50;12.75
73148;PMS7003;61346;48.930;2.266;2023-02-23T01:13:28;26.00;21.50;11.00
73148;PMS7003;61346;48.930;2.266;2023-02-23T01:15:56;28.75;26.50;16.00
73148;PMS7003;61346;48.930;2.266;2023-02-23T01:18:46;24.25;22.75;13.25
73148;PMS7003;61346;48.930;2.266;2023-02-23T01:21:34;26.00;21.50;13.00
73148;PMS7003;61346;48.930;2.266;2023-02-23T01:24:01;24.50;21.50;14.75
73148;PMS7003;61346;48.930;2.266;2023-02-23T01:26:28;26.00;22.50;15.00
73148;PMS7003;61346;48.930;2.266;2023-02-23T01:28:59;24.00;18.25;11.00
73148;PMS7003;61346;48.930;2.266;2023-02-23T01:31:28;27.75;25.75;16.00
73148;PMS7003;61346;48.930;2.266;2023-02-23T01:33:57;27.25;24.00;13.25
73148;PMS7003;61346;48.930;2.266;2023-02-23T01:36:25;24.75;20.00;14.25
73148;PMS7003;61346;48.930;2.266;2023-02-23T01:38:56;23.75;19.75;14.50
73148;PMS7003;61346;48.930;2.266;2023-02-23T01:41:24;25.00;21.25;12.75
73148;PMS7003;61346;48.930;2.266;2023-02-23T01:46:29;24.25;19.50;15.50
73148;PMS7003;61346;48.930;2.266;2023-02-23T01:49:03;24.50;20.00;13.00
73148;PMS7003;61346;48.930;2.266;2023-02-23T01:51:36;21.00;19.00;11.75
73148;PMS7003;61346;48.930;2.266;2023-02-23T01:54:17;22.50;20.00;13.00
73148;PMS7003;61346;48.930;2.266;2023-02-23T01:56:53;25.25;19.75;12.50
73148;PMS7003;61346;48.930;2.266;2023-02-23T01:59:23;26.75;20.75;13.50
73148;PMS7003;61346;48.930;2.266;2023-02-23T02:01:58;21.50;19.25;13.00
73148;PMS7003;61346;48.930;2.266;2023-02-23T02:04:24;26.25;22.50;13.00
73148;PMS7003;61346;48.930;2.266;2023-02-23T02:06:50;21.50;20.25;13.75
73148;PMS7003;61346;48.930;2.266;2023-02-23T02:09:21;24.75;19.75;11.50
73148;PMS7003;61346;48.930;2.266;2023-02-23T02:11:51;26.25;19.25;10.75
73148;PMS7003;61346;48.930;2.266;2023-02-23T02:14:22;17.50;13.00;9.00
73148;PMS7003;61346;48.930;2.266;2023-02-23T02:20:10;25.00;19.00;12.50
73148;PMS7003;61346;48.930;2.266;2023-02-23T02:43:21;17.00;15.00;10.00
73148;PMS7003;61346;48.930;2.266;2023-02-23T02:57:17;17.50;15.50;9.50
73148;PMS7003;61346;48.930;2.266;2023-02-23T02:59:59;17.25;15.50;10.00
73148;PMS7003;61346;48.930;2.266;2023-02-23T03:02:45;23.00;21.00;12.25
73148;PMS7003;61346;48.930;2.266;2023-02-23T03:05:33;14.50;12.00;9.00
73148;PMS7003;61346;48.930;2.266;2023-02-23T03:08:47;21.00;16.25;12.00
73148;PMS7003;61346;48.930;2.266;2023-02-23T03:11:45;17.50;17.00;12.00
73148;PMS7003;61346;48.930;2.266;2023-02-23T03:14:53;22.75;19.50;12.50
73148;PMS7003;61346;48.930;2.266;2023-02-23T03:17:47;20.50;17.75;11.25
73148;PMS7003;61346;48.930;2.266;2023-02-23T03:20:44;20.75;15.50;11.00
73148;PMS7003;61346;48.930;2.266;2023-02-23T03:23:55;19.00;16.50;12.00
73148;PMS7003;61346;48.930;2.266;2023-02-23T03:26:58;16.75;16.75;10.25
73148;PMS7003;61346;48.930;2.266;2023-02-23T03:29:57;15.75;15.75;11.75
73148;PMS7003;61346;48.930;2.266;2023-02-23T03:32:50;20.50;17.75;11.00
73148;PMS7003;61346;48.930;2.266;2023-02-23T03:35:47;22.25;18.25;12.50
73148;PMS7003;61346;48.930;2.266;2023-02-23T03:38:58;18.25;16.75;11.00
73148;PMS7003;61346;48.930;2.266;2023-02-23T03:42:06;25.00;15.25;11.50
73148;PMS7003;61346;48.930;2.266;2023-02-23T03:45:03;22.25;17.75;12.75
73148;PMS7003;61346;48.930;2.266;2023-02-23T03:47:54;25.25;16.50;11.00
73148;PMS7003;61346;48.930;2.266;2023-02-23T03:50:47;19.25;15.75;10.75
73148;PMS7003;61346;48.930;2.266;2023-02-23T03:54:10;18.50;17.25;11.00
73148;PMS7003;61346;48.930;2.266;2023-02-23T03:56:51;23.50;18.25;11.25
73148;PMS7003;61346;48.930;2.266;2023-02-23T03:59:38;18.25;17.25;12.00
73148;PMS7003;61346;48.930;2.266;2023-02-23T04:02:26;18.00;12.50;10.50
73148;PMS7003;61346;48.930;2.266;2023-02-23T04:05:15;19.75;17.50;9.75
73148;PMS7003;61346;48.930;2.266;2023-02-23T04:08:06;21.50;18.50;12.25
73148;PMS7003;61346;48.930;2.266;2023-02-23T04:11:13;25.25;23.25;14.00
73148;PMS7003;61346;48.930;2.266;2023-02-23T04:14:14;25.75;19.75;14.25
73148;PMS7003;61346;48.930;2.266;2023-02-23T04:17:01;25.25;18.00;12.00
73148;PMS7003;61346;48.930;2.266;2023-02-23T04:19:32;19.25;16.00;10.00
73148;PMS7003;61346;48.930;2.266;2023-02-23T04:22:06;15.25;13.00;6.25
73148;PMS7003;61346;48.930;2.266;2023-02-23T04:24:34;22.00;16.75;10.75
73148;PMS7003;61346;48.930;2.266;2023-02-23T04:27:03;13.50;13.25;8.75
73148;PMS7003;61346;48.930;2.266;2023-02-23T04:29:32;23.25;17.75;12.50
73148;PMS7003;61346;48.930;2.266;2023-02-23T04:32:00;17.50;16.25;11.00
73148;PMS7003;61346;48.930;2.266;2023-02-23T04:34:25;18.25;14.75;10.00
73148;PMS7003;61346;48.930;2.266;2023-02-23T04:36:51;15.75;14.75;8.50
73148;PMS7003;61346;48.930;2.266;2023-02-23T04:39:16;24.00;18.25;12.00
73148;PMS7003;61346;48.930;2.266;2023-02-23T04:41:44;21.00;16.00;10.25
73148;PMS7003;61346;48.930;2.266;2023-02-23T04:44:10;20.50;16.25;11.00
73148;PMS7003;61346;48.930;2.266;2023-02-23T04:46:36;17.50;16.00;10.75
73148;PMS7003;61346;48.930;2.266;2023-02-23T04:49:03;15.75;15.50;11.25
73148;PMS7003;61346;48.930;2.266;2023-02-23T04:51:29;23.75;18.25;13.50
73148;PMS7003;61346;48.930;2.266;2023-02-23T04:53:56;22.50;18.25;12.75
73148;PMS7003;61346;48.930;2.266;2023-02-23T04:56:22;23.25;19.75;12.50
73148;PMS7003;61346;48.930;2.266;2023-02-23T05:01:35;24.75;20.25;11.50
73148;PMS7003;61346;48.930;2.266;2023-02-23T05:04:01;30.25;22.00;12.00
73148;PMS7003;61346;48.930;2.266;2023-02-23T05:06:26;21.25;19.75;13.75
73148;PMS7003;61346;48.930;2.266;2023-02-23T05:08:55;21.50;20.50;14.00
73148;PMS7003;61346;48.930;2.266;2023-02-23T05:11:20;24.25;21.25;16.00
73148;PMS7003;61346;48.930;2.266;2023-02-23T05:13:49;26.25;22.25;13.00
73148;PMS7003;61346;48.930;2.266;2023-02-23T05:16:16;19.50;18.50;13.25
73148;PMS7003;61346;48.930;2.266;2023-02-23T05:18:44;25.25;24.00;16.25
73148;PMS7003;61346;48.930;2.266;2023-02-23T05:21:10;25.25;22.75;15.00
73148;PMS7003;61346;48.930;2.266;2023-02-23T05:23:44;24.25;22.00;15.50
73148;PMS7003;61346;48.930;2.266;2023-02-23T05:26:12;55.50;41.50;26.25
73148;PMS7003;61346;48.930;2.266;2023-02-23T05:28:40;36.00;28.50;18.25
73148;PMS7003;61346;48.930;2.266;2023-02-23T05:31:06;33.25;32.25;19.75
73148;PMS7003;61346;48.930;2.266;2023-02-23T05:33:51;34.50;30.25;21.25
73148;PMS7003;61346;48.930;2.266;2023-02-23T05:36:20;27.25;26.50;17.50
73148;PMS7003;61346;48.930;2.266;2023-02-23T05:38:46;23.00;21.75;13.50
73148;PMS7003;61346;48.930;2.266;2023-02-23T05:41:24;21.75;19.00;12.25
73148;PMS7003;61346;48.930;2.266;2023-02-23T05:43:50;20.75;19.75;12.25
73148;PMS7003;61346;48.930;2.266;2023-02-23T05:46:18;23.50;22.50;15.00
73148;PMS7003;61346;48.930;2.266;2023-02-23T05:48:49;32.75;28.75;17.50
73148;PMS7003;61346;48.930;2.266;2023-02-23T05:51:16;25.00;22.00;15.25
73148;PMS7003;61346;48.930;2.266;2023-02-23T05:53:42;33.25;30.00;22.50
73148;PMS7003;61346;48.930;2.266;2023-02-23T05:56:09;38.25;31.00;21.00
73148;PMS7003;61346;48.930;2.266;2023-02-23T05:58:37;35.75;30.75;19.75
73148;PMS7003;61346;48.930;2.266;2023-02-23T06:01:03;32.00;29.00;21.75
73148;PMS7003;61346;48.930;2.266;2023-02-23T06:03:28;31.50;27.50;16.25
73148;PMS7003;61346;48.930;2.266;2023-02-23T06:05:56;27.50;24.75;13.25
73148;PMS7003;61346;48.930;2.266;2023-02-23T06:08:23;27.25;24.00;15.75
73148;PMS7003;61346;48.930;2.266;2023-02-23T06:10:49;24.75;18.75;13.25
73148;PMS7003;61346;48.930;2.266;2023-02-23T06:13:15;18.25;16.50;10.50
73148;PMS7003;61346;48.930;2.266;2023-02-23T06:15:42;31.25;21.75;12.75
73148;PMS7003;61346;48.930;2.266;2023-02-23T06:18:08;24.50;22.50;14.50
73148;PMS7003;61346;48.930;2.266;2023-02-23T06:20:33;26.25;21.50;15.75
73148;PMS7003;61346;48.930;2.266;2023-02-23T06:22:59;22.25;21.25;12.50
73148;PMS7003;61346;48.930;2.266;2023-02-23T06:25:24;22.75;21.00;15.00
73148;PMS7003;61346;48.930;2.266;2023-02-23T06:27:50;21.25;18.25;11.00
73148;PMS7003;61346;48.930;2.266;2023-02-23T06:30:15;19.75;19.75;14.75
73148;PMS7003;61346;48.930;2.266;2023-02-23T06:32:41;27.75;24.75;15.00
73148;PMS7003;61346;48.930;2.266;2023-02-23T06:35:06;20.75;20.50;13.75
73148;PMS7003;61346;48.930;2.266;2023-02-23T06:37:33;20.75;17.75;12.25
73148;PMS7003;61346;48.930;2.266;2023-02-23T06:40:04;18.75;17.25;13.00
73148;PMS7003;61346;48.930;2.266;2023-02-23T06:42:31;23.50;21.50;12.25
73148;PMS7003;61346;48.930;2.266;2023-02-23T06:44:56;19.25;19.00;12.00
73148;PMS7003;61346;48.930;2.266;2023-02-23T06:47:22;25.00;22.75;14.25
73148;PMS7003;61346;48.930;2.266;2023-02-23T06:49:48;22.50;19.50;11.75
73148;PMS7003;61346;48.930;2.266;2023-02-23T06:52:14;25.00;19.00;12.75
73148;PMS7003;61346;48.930;2.266;2023-02-23T06:54:40;23.25;21.50;15.50
73148;PMS7003;61346;48.930;2.266;2023-02-23T06:57:07;23.00;21.50;12.50
73148;PMS7003;61346;48.930;2.266;2023-02-23T06:59:33;17.00;17.00;12.00
73148;PMS7003;61346;48.930;2.266;2023-02-23T07:02:00;20.00;17.50;12.50
73148;PMS7003;61346;48.930;2.266;2023-02-23T07:04:26;21.75;19.25;14.00
73148;PMS7003;61346;48.930;2.266;2023-02-23T07:06:51;29.25;25.25;16.00
73148;PMS7003;61346;48.930;2.266;2023-02-23T07:09:17;23.00;21.00;14.00
73148;PMS7003;61346;48.930;2.266;2023-02-23T07:11:42;27.00;21.50;16.00
73148;PMS7003;61346;48.930;2.266;2023-02-23T07:14:11;18.25;18.00;11.00
73148;PMS7003;61346;48.930;2.266;2023-02-23T07:16:44;26.50;18.75;11.25
73148;PMS7003;61346;48.930;2.266;2023-02-23T07:19:10;21.50;18.00;13.00
73148;PMS7003;61346;48.930;2.266;2023-02-23T07:21:35;22.25;19.75;13.50
73148;PMS7003;61346;48.930;2.266;2023-02-23T07:24:24;18.75;17.75;12.75
73148;PMS7003;61346;48.930;2.266;2023-02-23T07:26:49;23.25;22.00;14.50
73148;PMS7003;61346;48.930;2.266;2023-02-23T07:29:16;19.00;16.00;11.00
73148;PMS7003;61346;48.930;2.266;2023-02-23T07:31:58;23.50;22.50;15.75
73148;PMS7003;61346;48.930;2.266;2023-02-23T07:34:26;26.00;24.00;16.00
73148;PMS7003;61346;48.930;2.266;2023-02-23T07:36:51;18.25;16.75;10.00
73148;PMS7003;61346;48.930;2.266;2023-02-23T07:39:20;23.00;22.25;12.50
73148;PMS7003;61346;48.930;2.266;2023-02-23T07:41:50;27.00;25.00;16.00
73148;PMS7003;61346;48.930;2.266;2023-02-23T07:44:21;26.00;22.00;12.25
73148;PMS7003;61346;48.930;2.266;2023-02-23T07:47:04;25.50;19.00;12.75
73148;PMS7003;61346;48.930;2.266;2023-02-23T07:49:35;23.25;23.25;13.75
73148;PMS7003;61346;48.930;2.266;2023-02-23T07:52:00;19.50;17.75;10.00
73148;PMS7003;61346;48.930;2.266;2023-02-23T07:54:29;21.50;21.50;15.00
73148;PMS7003;61346;48.930;2.266;2023-02-23T07:59:56;19.25;18.00;11.50
73148;PMS7003;61346;48.930;2.266;2023-02-23T08:02:22;23.50;21.50;14.75
73148;PMS7003;61346;48.930;2.266;2023-02-23T08:04:51;29.25;22.50;15.00
73148;PMS7003;61346;48.930;2.266;2023-02-23T08:08:01;34.25;30.50;18.75
73148;PMS7003;61346;48.930;2.266;2023-02-23T08:10:26;22.25;19.50;12.00
73148;PMS7003;61346;48.930;2.266;2023-02-23T08:13:10;22.75;21.50;14.50
73148;PMS7003;61346;48.930;2.266;2023-02-23T08:18:39;27.50;22.75;15.00
73148;PMS7003;61346;48.930;2.266;2023-02-23T08:21:45;28.75;22.50;16.00
73148;PMS7003;61346;48.930;2.266;2023-02-23T08:24:44;25.75;20.25;14.50
73148;PMS7003;61346;48.930;2.266;2023-02-23T08:27:41;31.50;24.75;16.50
73148;PMS7003;61346;48.930;2.266;2023-02-23T08:30:07;26.00;23.00;13.75
73148;PMS7003;61346;48.930;2.266;2023-02-23T08:32:41;23.00;19.50;13.25
73148;PMS7003;61346;48.930;2.266;2023-02-23T08:35:47;22.25;20.50;13.50
73148;PMS7003;61346;48.930;2.266;2023-02-23T08:38:22;21.50;18.25;12.50
73148;PMS7003;61346;48.930;2.266;2023-02-23T08:41:10;28.00;25.00;15.00
73148;PMS7003;61346;48.930;2.266;2023-02-23T08:44:04;22.50;20.75;14.00
73148;PMS7003;61346;48.930;2.266;2023-02-23T08:46:38;18.50;17.00;11.00
73148;PMS7003;61346;48.930;2.266;2023-02-23T08:49:10;23.50;20.75;13.00
73148;PMS7003;61346;48.930;2.266;2023-02-23T08:51:36;25.75;21.00;13.25
73148;PMS7003;61346;48.930;2.266;2023-02-23T08:54:01;14.00;12.00;11.50
73148;PMS7003;61346;48.930;2.266;2023-02-23T08:56:27;26.50;25.50;15.25
73148;PMS7003;61346;48.930;2.266;2023-02-23T08:59:03;21.00;17.75;11.00
73148;PMS7003;61346;48.930;2.266;2023-02-23T09:01:29;28.00;23.75;14.00
73148;PMS7003;61346;48.930;2.266;2023-02-23T09:03:55;31.75;24.75;14.25
73148;PMS7003;61346;48.930;2.266;2023-02-23T09:06:22;28.00;23.50;15.75
73148;PMS7003;61346;48.930;2.266;2023-02-23T09:09:02;26.00;23.25;17.00
73148;PMS7003;61346;48.930;2.266;2023-02-23T09:11:47;30.25;26.00;14.75
73148;PMS7003;61346;48.930;2.266;2023-02-23T09:14:20;29.75;21.75;15.50
73148;PMS7003;61346;48.930;2.266;2023-02-23T09:16:54;25.50;21.50;14.50
73148;PMS7003;61346;48.930;2.266;2023-02-23T09:19:19;29.25;24.00;15.00
73148;PMS7003;61346;48.930;2.266;2023-02-23T09:21:55;33.75;24.75;16.50
73148;PMS7003;61346;48.930;2.266;2023-02-23T09:31:15;23.25;22.75;13.25
73148;PMS7003;61346;48.930;2.266;2023-02-23T09:33:43;22.50;19.25;13.00
73148;PMS7003;61346;48.930;2.266;2023-02-23T09:36:22;26.75;22.75;14.00
73148;PMS7003;61346;48.930;2.266;2023-02-23T09:39:07;24.50;22.50;13.25
73148;PMS7003;61346;48.930;2.266;2023-02-23T09:53:42;24.25;13.50;10.00
73148;PMS7003;61346;48.930;2.266;2023-02-23T09:59:38;25.50;22.00;14.00
73148;PMS7003;61346;48.930;2.266;2023-02-23T10:05:58;26.25;21.00;12.25
73148;PMS7003;61346;48.930;2.266;2023-02-23T10:26:17;23.25;21.25;12.25
73148;PMS7003;61346;48.930;2.266;2023-02-23T10:48:35;22.75;21.50;13.25
73148;PMS7003;61346;48.930;2.266;2023-02-23T10:51:08;21.50;18.75;13.75
73148;PMS7003;61346;48.930;2.266;2023-02-23T10:53:43;30.00;22.25;15.50
73148;PMS7003;61346;48.930;2.266;2023-02-23T10:56:16;24.50;22.00;15.75
73148;PMS7003;61346;48.930;2.266;2023-02-23T10:58:47;25.75;25.00;16.00
73148;PMS7003;61346;48.930;2.266;2023-02-23T11:01:32;33.75;28.50;15.00
73148;PMS7003;61346;48.930;2.266;2023-02-23T11:06:50;34.25;29.75;15.25
73148;PMS7003;61346;48.930;2.266;2023-02-23T11:09:38;37.00;33.00;19.00
73148;PMS7003;61346;48.930;2.266;2023-02-23T13:07:44;19.50;18.00;9.75
73148;PMS7003;61346;48.930;2.266;2023-02-23T13:28:59;17.50;12.75;10.00
73148;PMS7003;61346;48.930;2.266;2023-02-23T13:32:16;17.00;14.50;8.75
73148;PMS7003;61346;48.930;2.266;2023-02-23T13:35:24;14.25;12.50;7.75
73148;PMS7003;61346;48.930;2.266;2023-02-23T13:53:47;19.00;18.50;11.50
73148;PMS7003;61346;48.930;2.266;2023-02-23T14:24:34;16.50;15.00;12.25
73148;PMS7003;61346;48.930;2.266;2023-02-23T14:46:02;15.75;12.75;9.00
73148;PMS7003;61346;48.930;2.266;2023-02-23T14:48:32;15.75;14.00;9.00
73148;PMS7003;61346;48.930;2.266;2023-02-23T14:53:46;13.25;11.50;8.00
73148;PMS7003;61346;48.930;2.266;2023-02-23T15:00:21;16.50;14.25;9.00
73148;PMS7003;61346;48.930;2.266;2023-02-23T15:02:39;16.25;15.00;10.00
73148;PMS7003;61346;48.930;2.266;2023-02-23T15:05:40;15.75;13.75;10.00
73148;PMS7003;61346;48.930;2.266;2023-02-23T15:08:08;13.25;13.25;9.75
73148;PMS7003;61346;48.930;2.266;2023-02-23T15:10:45;19.25;16.00;10.00
73148;PMS7003;61346;48.930;2.266;2023-02-23T15:13:24;13.00;10.25;8.50
73148;PMS7003;61346;48.930;2.266;2023-02-23T15:16:02;16.25;14.25;9.25
73148;PMS7003;61346;48.930;2.266;2023-02-23T15:22:02;17.00;14.75;10.00
73148;PMS7003;61346;48.930;2.266;2023-02-23T15:24:48;12.25;12.25;8.25
73148;PMS7003;61346;48.930;2.266;2023-02-23T15:27:47;15.00;15.00;10.00
73148;PMS7003;61346;48.930;2.266;2023-02-23T15:33:17;14.00;14.00;9.00
73148;PMS7003;61346;48.930;2.266;2023-02-23T16:08:55;13.00;11.25;8.00
73148;PMS7003;61346;48.930;2.266;2023-02-23T16:15:01;15.00;13.75;9.00
73148;PMS7003;61346;48.930;2.266;2023-02-23T16:24:31;19.75;18.00;10.50
73148;PMS7003;61346;48.930;2.266;2023-02-23T16:27:23;14.50;13.75;10.25
73148;PMS7003;61346;48.930;2.266;2023-02-23T16:30:57;14.50;13.00;9.50
73148;PMS7003;61346;48.930;2.266;2023-02-23T16:39:09;17.50;15.00;9.75
73148;PMS7003;61346;48.930;2.266;2023-02-23T16:41:57;19.75;17.00;11.75
73148;PMS7003;61346;48.930;2.266;2023-02-23T16:44:24;16.75;15.25;10.25
73148;PMS7003;61346;48.930;2.266;2023-02-23T16:52:55;18.00;16.50;10.50
73148;PMS7003;61346;48.930;2.266;2023-02-23T16:55:25;21.50;17.50;11.25
73148;PMS7003;61346;48.930;2.266;2023-02-23T16:57:56;14.75;13.00;7.50
73148;PMS7003;61346;48.930;2.266;2023-02-23T17:00:31;17.50;14.75;11.50
73148;PMS7003;61346;48.930;2.266;2023-02-23T17:06:57;17.50;16.25;10.50
73148;PMS7003;61346;48.930;2.266;2023-02-23T17:09:24;18.25;16.00;11.25
73148;PMS7003;61346;48.930;2.266;2023-02-23T17:15:37;21.25;19.50;13.25
73148;PMS7003;61346;48.930;2.266;2023-02-23T21:33:24;33.25;26.50;18.75
73148;PMS7003;61346;48.930;2.266;2023-02-23T21:35:59;34.00;32.25;21.00
73148;PMS7003;61346;48.930;2.266;2023-02-23T21:38:24;39.25;33.25;20.00
73148;PMS7003;61346;48.930;2.266;2023-02-23T21:40:50;37.50;32.75;20.00
73148;PMS7003;61346;48.930;2.266;2023-02-23T21:43:18;39.75;31.00;18.00
73148;PMS7003;61346;48.930;2.266;2023-02-23T21:45:54;37.75;32.50;21.50
73148;PMS7003;61346;48.930;2.266;2023-02-23T21:48:22;41.50;32.25;18.50
73148;PMS7003;61346;48.930;2.266;2023-02-23T21:51:09;43.25;34.75;19.50
73148;PMS7003;61346;48.930;2.266;2023-02-23T21:53:37;38.75;33.00;20.75
73148;PMS7003;61346;48.930;2.266;2023-02-23T21:56:18;40.25;31.25;18.50
73148;PMS7003;61346;48.930;2.266;2023-02-23T21:58:48;41.25;33.00;18.25
73148;PMS7003;61346;48.930;2.266;2023-02-23T22:01:24;41.75;31.75;17.25
73148;PMS7003;61346;48.930;2.266;2023-02-23T22:03:55;40.50;34.00;18.00
73148;PMS7003;61346;48.930;2.266;2023-02-23T22:06:26;41.25;34.75;21.25
73148;PMS7003;61346;48.930;2.266;2023-02-23T22:08:54;40.00;34.00;20.50
73148;PMS7003;61346;48.930;2.266;2023-02-23T22:11:22;41.25;33.00;21.25
73148;PMS7003;61346;48.930;2.266;2023-02-23T22:13:51;41.75;34.75;20.75
73148;PMS7003;61346;48.930;2.266;2023-02-23T22:16:30;42.75;33.25;16.50
73148;PMS7003;61346;48.930;2.266;2023-02-23T22:19:00;44.50;37.25;20.25
73148;PMS7003;61346;48.930;2.266;2023-02-23T22:21:28;44.50;33.50;21.50
73148;PMS7003;61346;48.930;2.266;2023-02-23T22:23:58;38.50;33.50;21.00
73148;PMS7003;61346;48.930;2.266;2023-02-23T22:26:25;47.25;37.00;22.25
73148;PMS7003;61346;48.930;2.266;2023-02-23T22:28:50;38.50;34.25;20.25
73148;PMS7003;61346;48.930;2.266;2023-02-23T22:31:16;45.25;35.50;20.00
73148;PMS7003;61346;48.930;2.266;2023-02-23T22:33:41;48.00;35.75;17.00
73148;PMS7003;61346;48.930;2.266;2023-02-23T22:36:11;42.25;32.00;19.50
73148;PMS7003;61346;48.930;2.266;2023-02-23T22:38:38;47.50;35.75;17.50
73148;PMS7003;61346;48.930;2.266;2023-02-23T22:41:05;40.75;32.75;19.25
73148;PMS7003;61346;48.930;2.266;2023-02-23T22:43:35;48.00;36.75;21.50
73148;PMS7003;61346;48.930;2.266;2023-02-23T22:46:16;35.25;31.75;16.00
73148;PMS7003;61346;48.930;2.266;2023-02-23T22:48:42;41.00;35.25;21.25
73148;PMS7003;61346;48.930;2.266;2023-02-23T22:51:13;42.50;35.50;21.00
73148;PMS7003;61346;48.930;2.266;2023-02-23T22:53:40;45.25;33.50;19.00
73148;PMS7003;61346;48.930;2.266;2023-02-23T22:56:06;42.00;35.00;20.00
73148;PMS7003;61346;48.930;2.266;2023-02-23T22:58:35;50.50;37.50;22.00
73148;PMS7003;61346;48.930;2.266;2023-02-23T23:01:02;42.25;35.00;21.25
73148;PMS7003;61346;48.930;2.266;2023-02-23T23:05:57;46.00;36.50;21.75
73148;PMS7003;61346;48.930;2.266;2023-02-23T23:08:27;47.00;38.00;22.00
73148;PMS7003;61346;48.930;2.266;2023-02-23T23:11:04;41.50;31.25;16.00
73148;PMS7003;61346;48.930;2.266;2023-02-23T23:13:37;46.75;35.00;20.00
73148;PMS7003;61346;48.930;2.266;2023-02-23T23:16:09;42.75;34.75;21.50
73148;PMS7003;61346;48.930;2.266;2023-02-23T23:19:02;41.50;36.50;22.00
73148;PMS7003;61346;48.930;2.266;2023-02-23T23:21:36;44.75;37.00;23.00
73148;PMS7003;61346;48.930;2.266;2023-02-23T23:24:08;46.75;37.50;22.00
73148;PMS7003;61346;48.930;2.266;2023-02-23T23:26:37;41.75;34.75;21.00
73148;PMS7003;61346;48.930;2.266;2023-02-23T23:29:04;41.50;35.75;19.75
73148;PMS7003;61346;48.930;2.266;2023-02-23T23:31:31;50.75;39.50;22.00
73148;PMS7003;61346;48.930;2.266;2023-02-23T23:33:59;44.00;35.75;21.00
73148;PMS7003;61346;48.930;2.266;2023-02-23T23:36:32;37.50;33.00;18.00
73148;PMS7003;61346;48.930;2.266;2023-02-23T23:38:59;43.75;36.25;22.00
73148;PMS7003;61346;48.930;2.266;2023-02-23T23:41:26;46.00;34.50;18.25
73148;PMS7003;61346;48.930;2.266;2023-02-23T23:43:54;33.75;29.50;17.25
73148;PMS7003;61346;48.930;2.266;2023-02-23T23:46:25;38.50;32.50;19.00
73148;PMS7003;61346;48.930;2.266;2023-02-23T23:49:00;42.25;35.25;21.25
73148;PMS7003;61346;48.930;2.266;2023-02-23T23:51:31;44.75;36.00;19.50
73148;PMS7003;61346;48.930;2.266;2023-02-23T23:54:05;47.25;36.25;20.50
73148;PMS7003;61346;48.930;2.266;2023-02-23T23:56:34;48.00;35.50;22.00
73148;PMS7003;61346;48.930;2.266;2023-02-23T23:59:10;46.75;38.50;21.50
